createdAt,value
2018-08-31T00:00:57.532Z,0.00
2018-08-31T00:01:57.544Z,0.00
2018-08-31T00:02:57.559Z,0.00
2018-08-31T00:03:57.588Z,0.00
2018-08-31T00:04:57.589Z,0.00
2018-08-31T00:05:57.604Z,0.00
2018-08-31T00:06:57.620Z,0.00
2018-08-31T00:07:57.638Z,0.00
2018-08-31T00:08:57.653Z,0.00
2018-08-31T00:09:57.664Z,0.00
2018-08-31T00:10:57.690Z,0.00
2018-08-31T00:11:57.692Z,0.00
2018-08-31T00:12:57.707Z,0.00
2018-08-31T00:13:57.722Z,0.00
2018-08-31T00:14:57.738Z,0.00
2018-08-31T00:15:57.754Z,0.00
2018-08-31T00:16:57.779Z,0.00
2018-08-31T00:17:57.786Z,0.00
2018-08-31T00:18:57.799Z,0.00
2018-08-31T00:19:57.947Z,0.00
2018-08-31T00:20:57.832Z,0.00
2018-08-31T00:21:57.842Z,0.00
2018-08-31T00:22:57.856Z,0.00
2018-08-31T00:23:57.873Z,0.00
2018-08-31T00:24:57.888Z,0.00
2018-08-31T00:25:57.904Z,0.00
2018-08-31T00:26:57.916Z,0.00
2018-08-31T00:27:57.931Z,0.00
2018-08-31T00:28:57.948Z,4.00
2018-08-31T00:29:57.960Z,0.00
2018-08-31T00:30:57.975Z,0.00
2018-08-31T00:31:57.990Z,0.00
2018-08-31T00:32:58.006Z,0.00
2018-08-31T00:33:58.024Z,0.00
2018-08-31T00:34:58.035Z,0.00
2018-08-31T00:35:58.051Z,0.00
2018-08-31T00:36:58.066Z,0.00
2018-08-31T00:37:58.078Z,0.00
2018-08-31T00:38:58.092Z,0.00
2018-08-31T00:39:58.111Z,0.00
2018-08-31T00:40:58.126Z,0.00
2018-08-31T00:41:58.136Z,0.00
2018-08-31T00:42:58.153Z,0.00
2018-08-31T00:43:58.173Z,0.00
2018-08-31T00:44:58.184Z,0.00
2018-08-31T00:45:58.201Z,0.00
2018-08-31T00:46:58.223Z,0.00
2018-08-31T00:47:58.277Z,0.00
2018-08-31T00:48:58.243Z,0.00
2018-08-31T00:49:58.325Z,0.00
2018-08-31T00:50:58.269Z,0.00
2018-08-31T00:51:58.285Z,0.00
2018-08-31T00:52:58.304Z,0.00
2018-08-31T00:53:58.315Z,0.00
2018-08-31T00:54:58.330Z,0.00
2018-08-31T00:55:58.348Z,0.00
2018-08-31T00:56:58.361Z,0.00
2018-08-31T00:57:58.375Z,0.00
2018-08-31T00:58:58.388Z,0.00
2018-08-31T00:59:58.407Z,0.00
2018-08-31T01:00:58.419Z,0.00
2018-08-31T01:01:58.433Z,0.00
2018-08-31T01:02:58.447Z,0.00
2018-08-31T01:03:58.466Z,0.00
2018-08-31T01:04:58.480Z,0.00
2018-08-31T01:05:58.493Z,0.00
2018-08-31T01:06:58.515Z,0.00
2018-08-31T01:07:58.523Z,0.00
2018-08-31T01:08:58.540Z,0.00
2018-08-31T01:09:58.550Z,0.00
2018-08-31T01:10:58.564Z,0.00
2018-08-31T01:11:58.582Z,0.00
2018-08-31T01:12:58.600Z,0.00
2018-08-31T01:13:58.610Z,0.00
2018-08-31T01:14:58.626Z,0.00
2018-08-31T01:15:58.640Z,0.00
2018-08-31T01:16:58.653Z,0.00
2018-08-31T01:17:58.669Z,0.00
2018-08-31T01:18:58.682Z,0.00
2018-08-31T01:19:58.705Z,0.00
2018-08-31T01:20:58.712Z,0.00
2018-08-31T01:21:58.727Z,0.00
2018-08-31T01:22:58.830Z,0.00
2018-08-31T01:23:58.759Z,0.00
2018-08-31T01:24:58.772Z,0.00
2018-08-31T01:25:58.785Z,0.00
2018-08-31T01:26:58.801Z,0.00
2018-08-31T01:27:58.815Z,0.00
2018-08-31T01:28:58.831Z,0.00
2018-08-31T01:29:58.845Z,0.00
2018-08-31T01:30:58.865Z,0.00
2018-08-31T01:31:58.878Z,0.00
2018-08-31T01:32:58.908Z,0.00
2018-08-31T01:33:58.910Z,0.00
2018-08-31T01:34:58.918Z,0.00
2018-08-31T01:35:58.932Z,0.00
2018-08-31T01:36:58.948Z,0.00
2018-08-31T01:37:58.963Z,0.00
2018-08-31T01:38:58.980Z,0.00
2018-08-31T01:39:58.994Z,0.00
2018-08-31T01:40:59.011Z,0.00
2018-08-31T01:41:59.029Z,0.00
2018-08-31T01:42:59.038Z,0.00
2018-08-31T01:43:59.055Z,0.00
2018-08-31T01:44:59.069Z,0.00
2018-08-31T01:45:59.082Z,0.00
2018-08-31T01:46:59.095Z,0.00
2018-08-31T01:47:59.113Z,0.00
2018-08-31T01:48:59.125Z,0.00
2018-08-31T01:49:59.152Z,0.00
2018-08-31T01:50:59.155Z,0.00
2018-08-31T01:51:59.170Z,0.00
2018-08-31T01:52:59.188Z,0.00
2018-08-31T01:53:59.204Z,0.00
2018-08-31T01:54:59.311Z,0.00
2018-08-31T01:55:59.232Z,0.00
2018-08-31T01:56:59.251Z,4.00
2018-08-31T01:57:59.259Z,0.00
2018-08-31T01:58:59.276Z,0.00
2018-08-31T01:59:59.288Z,0.00
2018-08-31T02:00:59.303Z,0.00
2018-08-31T02:01:59.327Z,0.00
2018-08-31T02:02:59.328Z,0.00
2018-08-31T02:03:59.400Z,0.00
2018-08-31T02:04:59.362Z,0.00
2018-08-31T02:05:59.374Z,0.00
2018-08-31T02:06:59.388Z,0.00
2018-08-31T02:07:59.407Z,0.00
2018-08-31T02:08:59.431Z,0.00
2018-08-31T02:09:59.432Z,0.00
2018-08-31T02:10:59.447Z,0.00
2018-08-31T02:11:59.464Z,0.00
2018-08-31T02:12:59.483Z,0.00
2018-08-31T02:13:59.497Z,0.00
2018-08-31T02:14:59.510Z,0.00
2018-08-31T02:15:59.521Z,0.00
2018-08-31T02:16:59.537Z,0.00
2018-08-31T02:17:59.550Z,0.00
2018-08-31T02:18:59.574Z,0.00
2018-08-31T02:19:59.584Z,0.00
2018-08-31T02:20:59.597Z,0.00
2018-08-31T02:21:59.610Z,0.00
2018-08-31T02:22:59.626Z,0.00
2018-08-31T02:23:59.639Z,0.00
2018-08-31T02:24:59.653Z,0.00
2018-08-31T02:25:59.668Z,0.00
2018-08-31T02:26:59.684Z,0.00
2018-08-31T02:27:59.769Z,0.00
2018-08-31T02:28:59.715Z,0.00
2018-08-31T02:29:59.729Z,0.00
2018-08-31T02:30:59.749Z,0.00
2018-08-31T02:31:59.756Z,0.00
2018-08-31T02:32:59.782Z,0.00
2018-08-31T02:33:59.784Z,0.00
2018-08-31T02:34:59.803Z,0.00
2018-08-31T02:35:59.819Z,0.00
2018-08-31T02:36:59.836Z,0.00
2018-08-31T02:37:59.844Z,0.00
2018-08-31T02:38:59.868Z,0.00
2018-08-31T02:39:59.876Z,0.00
2018-08-31T02:40:59.886Z,0.00
2018-08-31T02:41:59.901Z,0.00
2018-08-31T02:42:59.915Z,0.00
2018-08-31T02:43:59.932Z,0.00
2018-08-31T02:44:59.950Z,0.00
2018-08-31T02:45:59.979Z,0.00
2018-08-31T02:46:59.978Z,0.00
2018-08-31T02:47:59.990Z,0.00
2018-08-31T02:49:00.007Z,0.00
2018-08-31T02:50:00.020Z,0.00
2018-08-31T02:51:00.034Z,0.00
2018-08-31T02:52:00.049Z,0.00
2018-08-31T02:53:00.063Z,0.00
2018-08-31T02:54:00.080Z,0.00
2018-08-31T02:55:00.100Z,0.00
2018-08-31T02:56:00.158Z,0.00
2018-08-31T02:57:00.123Z,0.00
2018-08-31T02:58:00.153Z,0.00
2018-08-31T02:59:00.352Z,0.00
2018-08-31T03:00:00.190Z,0.00
2018-08-31T03:01:00.181Z,0.00
2018-08-31T03:02:00.194Z,0.00
2018-08-31T03:03:00.208Z,0.00
2018-08-31T03:04:00.228Z,0.00
2018-08-31T03:05:00.346Z,0.00
2018-08-31T03:06:00.264Z,0.00
2018-08-31T03:07:00.268Z,0.00
2018-08-31T03:08:00.287Z,0.00
2018-08-31T03:09:00.299Z,0.00
2018-08-31T03:10:00.312Z,0.00
2018-08-31T03:11:00.334Z,0.00
2018-08-31T03:12:00.343Z,0.00
2018-08-31T03:13:00.365Z,0.00
2018-08-31T03:14:00.374Z,0.00
2018-08-31T03:15:00.384Z,0.00
2018-08-31T03:16:00.413Z,0.00
2018-08-31T03:17:00.416Z,0.00
2018-08-31T03:18:00.430Z,0.00
2018-08-31T03:19:00.446Z,0.00
2018-08-31T03:20:00.482Z,0.00
2018-08-31T03:21:00.484Z,0.00
2018-08-31T03:22:00.491Z,0.00
2018-08-31T03:23:00.507Z,0.00
2018-08-31T03:24:00.513Z,0.00
2018-08-31T03:25:00.552Z,0.00
2018-08-31T03:26:00.545Z,0.00
2018-08-31T03:27:00.563Z,0.00
2018-08-31T03:28:00.574Z,0.00
2018-08-31T03:29:00.597Z,0.00
2018-08-31T03:30:00.655Z,0.00
2018-08-31T03:31:00.628Z,0.00
2018-08-31T03:32:00.645Z,0.00
2018-08-31T03:33:00.692Z,0.00
2018-08-31T03:34:00.694Z,0.00
2018-08-31T03:35:00.691Z,0.00
2018-08-31T03:36:00.705Z,0.00
2018-08-31T03:37:00.781Z,0.00
2018-08-31T03:38:00.720Z,0.00
2018-08-31T03:39:00.749Z,0.00
2018-08-31T03:40:00.754Z,0.00
2018-08-31T03:41:00.772Z,0.00
2018-08-31T03:42:00.782Z,0.00
2018-08-31T03:43:00.794Z,0.00
2018-08-31T03:44:00.812Z,0.00
2018-08-31T03:45:00.820Z,0.00
2018-08-31T03:46:00.837Z,0.00
2018-08-31T03:47:00.851Z,0.00
2018-08-31T03:48:00.882Z,0.00
2018-08-31T03:49:00.879Z,0.00
2018-08-31T03:50:00.908Z,0.00
2018-08-31T03:51:00.912Z,0.00
2018-08-31T03:52:00.945Z,0.00
2018-08-31T03:53:00.950Z,0.00
2018-08-31T03:54:00.987Z,0.00
2018-08-31T03:55:00.969Z,0.00
2018-08-31T03:56:00.995Z,0.00
2018-08-31T03:57:01.024Z,4.00
2018-08-31T03:58:01.012Z,4.00
2018-08-31T03:59:01.031Z,4.00
2018-08-31T04:00:01.043Z,4.00
2018-08-31T04:01:01.062Z,4.00
2018-08-31T04:02:01.161Z,4.00
2018-08-31T04:03:01.607Z,4.00
2018-08-31T04:04:01.091Z,4.00
2018-08-31T04:05:01.108Z,4.00
2018-08-31T04:06:01.143Z,4.00
2018-08-31T04:07:01.134Z,4.00
2018-08-31T04:08:01.151Z,4.00
2018-08-31T04:09:01.164Z,4.00
2018-08-31T04:10:01.191Z,4.00
2018-08-31T04:11:01.194Z,4.00
2018-08-31T04:12:01.208Z,4.00
2018-08-31T04:13:01.221Z,0.00
2018-08-31T04:14:01.235Z,4.00
2018-08-31T04:15:01.332Z,4.00
2018-08-31T04:17:01.279Z,8.00
2018-08-31T04:18:01.292Z,4.00
2018-08-31T04:19:01.323Z,8.00
2018-08-31T04:20:01.327Z,8.00
2018-08-31T04:21:01.345Z,8.00
2018-08-31T04:22:01.358Z,8.00
2018-08-31T04:23:01.366Z,8.00
2018-08-31T04:24:01.384Z,8.00
2018-08-31T04:25:01.398Z,8.00
2018-08-31T04:26:01.410Z,8.00
2018-08-31T04:27:01.425Z,8.00
2018-08-31T04:28:01.441Z,12.00
2018-08-31T04:29:01.459Z,12.00
2018-08-31T04:30:01.469Z,16.00
2018-08-31T04:31:01.583Z,16.00
2018-08-31T04:32:01.501Z,20.00
2018-08-31T04:33:01.513Z,20.00
2018-08-31T04:34:01.569Z,28.00
2018-08-31T04:35:01.700Z,28.00
2018-08-31T04:36:01.556Z,32.00
2018-08-31T04:37:01.571Z,36.00
2018-08-31T04:38:01.667Z,40.00
2018-08-31T04:39:01.647Z,44.00
2018-08-31T04:40:01.621Z,48.00
2018-08-31T04:41:01.633Z,52.00
2018-08-31T04:42:01.650Z,60.00
2018-08-31T04:43:01.790Z,68.00
2018-08-31T04:44:01.674Z,72.00
2018-08-31T04:45:01.690Z,76.00
2018-08-31T04:46:01.704Z,88.00
2018-08-31T04:47:01.718Z,92.00
2018-08-31T04:48:01.738Z,100.00
2018-08-31T04:49:01.745Z,108.00
2018-08-31T04:50:01.771Z,116.00
2018-08-31T04:51:01.774Z,124.00
2018-08-31T04:52:01.789Z,132.00
2018-08-31T04:53:01.803Z,140.00
2018-08-31T04:54:01.816Z,148.00
2018-08-31T04:55:01.831Z,156.00
2018-08-31T04:56:01.856Z,164.00
2018-08-31T04:57:01.869Z,172.00
2018-08-31T04:58:01.876Z,180.00
2018-08-31T04:59:02.014Z,188.00
2018-08-31T05:00:01.911Z,196.00
2018-08-31T05:01:01.923Z,204.00
2018-08-31T05:02:01.967Z,212.00
2018-08-31T05:03:02.153Z,216.00
2018-08-31T05:04:01.962Z,224.00
2018-08-31T05:05:01.994Z,232.00
2018-08-31T05:06:02.152Z,240.00
2018-08-31T05:07:02.877Z,248.00
2018-08-31T05:08:02.022Z,260.00
2018-08-31T05:09:02.200Z,272.00
2018-08-31T05:10:02.155Z,280.00
2018-08-31T05:11:02.065Z,292.00
2018-08-31T05:12:02.134Z,300.00
2018-08-31T05:13:02.103Z,312.00
2018-08-31T05:14:02.151Z,324.00
2018-08-31T05:15:02.142Z,336.00
2018-08-31T05:16:02.171Z,348.00
2018-08-31T05:17:02.156Z,356.00
2018-08-31T05:18:02.167Z,372.00
2018-08-31T05:19:02.951Z,388.00
2018-08-31T05:20:02.197Z,396.00
2018-08-31T05:21:02.211Z,412.00
2018-08-31T05:22:02.229Z,424.00
2018-08-31T05:23:02.276Z,440.00
2018-08-31T05:24:02.258Z,456.00
2018-08-31T05:25:02.275Z,468.00
2018-08-31T05:26:02.282Z,484.00
2018-08-31T05:27:02.303Z,500.00
2018-08-31T05:28:02.318Z,520.00
2018-08-31T05:29:02.348Z,532.00
2018-08-31T05:30:02.583Z,544.00
2018-08-31T05:31:02.517Z,552.00
2018-08-31T05:32:02.375Z,572.00
2018-08-31T05:33:02.384Z,588.00
2018-08-31T05:34:02.487Z,600.00
2018-08-31T05:35:02.414Z,616.00
2018-08-31T05:36:02.434Z,628.00
2018-08-31T05:37:02.446Z,640.00
2018-08-31T05:39:02.507Z,660.00
2018-08-31T05:40:03.154Z,676.00
2018-08-31T05:41:02.511Z,692.00
2018-08-31T05:42:02.516Z,692.00
2018-08-31T05:43:03.303Z,700.00
2018-08-31T05:44:03.369Z,712.00
2018-08-31T05:45:02.566Z,728.00
2018-08-31T05:46:02.940Z,736.00
2018-08-31T05:47:02.753Z,752.00
2018-08-31T05:48:02.649Z,760.00
2018-08-31T05:49:02.618Z,772.00
2018-08-31T05:50:02.632Z,780.00
2018-08-31T05:51:02.649Z,792.00
2018-08-31T05:52:02.661Z,804.00
2018-08-31T05:53:02.688Z,816.00
2018-08-31T05:54:02.694Z,836.00
2018-08-31T05:55:02.755Z,844.00
2018-08-31T05:56:02.720Z,856.00
2018-08-31T05:57:03.020Z,872.00
2018-08-31T05:58:02.847Z,888.00
2018-08-31T05:59:02.922Z,904.00
2018-08-31T06:00:03.818Z,924.00
2018-08-31T06:01:03.161Z,936.00
2018-08-31T06:02:03.400Z,956.00
2018-08-31T06:03:02.822Z,976.00
2018-08-31T06:04:03.073Z,992.00
2018-08-31T06:05:02.912Z,1008.00
2018-08-31T06:06:03.038Z,1028.00
2018-08-31T06:07:02.890Z,1048.00
2018-08-31T06:08:02.900Z,1064.00
2018-08-31T06:09:02.962Z,1080.00
2018-08-31T06:10:02.931Z,1100.00
2018-08-31T06:11:02.953Z,1120.00
2018-08-31T06:12:03.910Z,1136.00
2018-08-31T06:13:02.987Z,1160.00
2018-08-31T06:14:03.018Z,1196.00
2018-08-31T06:15:03.067Z,1216.00
2018-08-31T06:16:03.013Z,1236.00
2018-08-31T06:17:03.029Z,1260.00
2018-08-31T06:18:03.061Z,1288.00
2018-08-31T06:19:03.082Z,1312.00
2018-08-31T06:20:03.075Z,1316.00
2018-08-31T06:21:03.117Z,1320.00
2018-08-31T06:22:03.149Z,1332.00
2018-08-31T06:23:03.253Z,1352.00
2018-08-31T06:24:03.132Z,1372.00
2018-08-31T06:25:03.280Z,1388.00
2018-08-31T06:26:03.170Z,1428.00
2018-08-31T06:27:03.201Z,1464.00
2018-08-31T06:28:03.209Z,1504.00
2018-08-31T06:29:04.703Z,1532.00
2018-08-31T06:30:03.627Z,1568.00
2018-08-31T06:31:03.237Z,1572.00
2018-08-31T06:32:03.472Z,1548.00
2018-08-31T06:33:03.265Z,1552.00
2018-08-31T06:34:03.302Z,1568.00
2018-08-31T06:35:03.305Z,1592.00
2018-08-31T06:36:03.344Z,1604.00
2018-08-31T06:37:03.428Z,1628.00
2018-08-31T06:38:03.357Z,1652.00
2018-08-31T06:39:03.353Z,1676.00
2018-08-31T06:40:03.375Z,1720.00
2018-08-31T06:41:03.390Z,1768.00
2018-08-31T06:42:03.397Z,1792.00
2018-08-31T06:43:03.420Z,1824.00
2018-08-31T06:44:03.732Z,1856.00
2018-08-31T06:46:03.495Z,1884.00
2018-08-31T06:47:03.481Z,1856.00
2018-08-31T06:48:03.493Z,1860.00
2018-08-31T06:49:03.502Z,1892.00
2018-08-31T06:50:03.518Z,1956.00
2018-08-31T06:51:03.534Z,2012.00
2018-08-31T06:52:03.550Z,2032.00
2018-08-31T06:53:04.078Z,2044.00
2018-08-31T06:54:03.787Z,2052.00
2018-08-31T06:55:03.696Z,2048.00
2018-08-31T06:56:04.143Z,2068.00
2018-08-31T06:57:04.014Z,2100.00
2018-08-31T06:58:03.641Z,2136.00
2018-08-31T06:59:03.853Z,2136.00
2018-08-31T07:00:03.669Z,2160.00
2018-08-31T07:01:04.319Z,2180.00
2018-08-31T07:02:03.988Z,2216.00
2018-08-31T07:03:05.108Z,2224.00
2018-08-31T07:04:03.730Z,2256.00
2018-08-31T07:05:03.796Z,2268.00
2018-08-31T07:06:03.781Z,2276.00
2018-08-31T07:07:03.774Z,2288.00
2018-08-31T07:08:03.799Z,2304.00
2018-08-31T07:09:04.165Z,2340.00
2018-08-31T07:10:03.820Z,2376.00
2018-08-31T07:11:03.829Z,2400.00
2018-08-31T07:12:03.848Z,2420.00
2018-08-31T07:13:03.863Z,2408.00
2018-08-31T07:14:03.886Z,2408.00
2018-08-31T07:15:04.464Z,2388.00
2018-08-31T07:16:03.900Z,2424.00
2018-08-31T07:17:03.918Z,2344.00
2018-08-31T07:18:04.443Z,2408.00
2018-08-31T07:19:03.960Z,2432.00
2018-08-31T07:20:04.726Z,2428.00
2018-08-31T07:21:04.088Z,2408.00
2018-08-31T07:22:04.082Z,2420.00
2018-08-31T07:23:04.015Z,2436.00
2018-08-31T07:24:04.073Z,2476.00
2018-08-31T07:25:04.037Z,2496.00
2018-08-31T07:26:04.052Z,2496.00
2018-08-31T07:27:04.376Z,2528.00
2018-08-31T07:28:04.085Z,2512.00
2018-08-31T07:29:04.110Z,2552.00
2018-08-31T07:30:04.120Z,2560.00
2018-08-31T07:31:04.134Z,2672.00
2018-08-31T07:32:04.327Z,2716.00
2018-08-31T07:33:04.214Z,2748.00
2018-08-31T07:34:04.174Z,2772.00
2018-08-31T07:35:04.486Z,2736.00
2018-08-31T07:36:04.369Z,2680.00
2018-08-31T07:37:04.573Z,2752.00
2018-08-31T07:38:04.890Z,2848.00
2018-08-31T07:39:04.341Z,2864.00
2018-08-31T07:40:04.891Z,2888.00
2018-08-31T07:41:04.652Z,2916.00
2018-08-31T07:42:04.480Z,2988.00
2018-08-31T07:43:04.450Z,3036.00
2018-08-31T07:44:04.470Z,3068.00
2018-08-31T07:45:04.360Z,3092.00
2018-08-31T07:46:04.367Z,3116.00
2018-08-31T07:47:04.376Z,2984.00
2018-08-31T07:48:04.389Z,2940.00
2018-08-31T07:49:04.410Z,2936.00
2018-08-31T07:50:04.497Z,2972.00
2018-08-31T07:51:04.430Z,2964.00
2018-08-31T07:52:04.446Z,2968.00
2018-08-31T07:53:04.470Z,3036.00
2018-08-31T07:54:04.496Z,3396.00
2018-08-31T07:55:04.490Z,3436.00
2018-08-31T07:56:04.507Z,3452.00
2018-08-31T07:57:04.526Z,3436.00
2018-08-31T07:58:04.552Z,3472.00
2018-08-31T07:59:04.553Z,3488.00
2018-08-31T08:00:04.574Z,3488.00
2018-08-31T08:01:04.612Z,3488.00
2018-08-31T08:02:04.600Z,3484.00
2018-08-31T08:03:04.740Z,3460.00
2018-08-31T08:04:04.634Z,3356.00
2018-08-31T08:05:04.643Z,3372.00
2018-08-31T08:06:04.662Z,3404.00
2018-08-31T08:07:04.678Z,3312.00
2018-08-31T08:08:04.692Z,3472.00
2018-08-31T08:10:04.724Z,3652.00
2018-08-31T08:11:04.736Z,3588.00
2018-08-31T08:12:04.752Z,3656.00
2018-08-31T08:13:04.771Z,3668.00
2018-08-31T08:14:04.782Z,3680.00
2018-08-31T08:15:04.810Z,3716.00
2018-08-31T08:16:04.813Z,3724.00
2018-08-31T08:17:04.828Z,3724.00
2018-08-31T08:18:04.844Z,3740.00
2018-08-31T08:19:04.860Z,3748.00
2018-08-31T08:20:04.878Z,3720.00
2018-08-31T08:21:04.890Z,3724.00
2018-08-31T08:22:04.909Z,3732.00
2018-08-31T08:23:04.983Z,3720.00
2018-08-31T08:24:04.956Z,3720.00
2018-08-31T08:25:04.965Z,3692.00
2018-08-31T08:26:04.970Z,3684.00
2018-08-31T08:27:05.044Z,3688.00
2018-08-31T08:28:05.003Z,3600.00
2018-08-31T08:29:05.020Z,3600.00
2018-08-31T08:30:05.072Z,3612.00
2018-08-31T08:31:05.046Z,3660.00
2018-08-31T08:32:05.063Z,3676.00
2018-08-31T08:33:05.079Z,3692.00
2018-08-31T08:34:05.093Z,3692.00
2018-08-31T08:35:05.110Z,3704.00
2018-08-31T08:36:05.203Z,3700.00
2018-08-31T08:37:05.144Z,3608.00
2018-08-31T08:38:05.160Z,3576.00
2018-08-31T08:39:06.757Z,3556.00
2018-08-31T08:40:05.188Z,3572.00
2018-08-31T08:41:05.202Z,3556.00
2018-08-31T08:42:05.266Z,3528.00
2018-08-31T08:43:05.284Z,3456.00
2018-08-31T08:44:05.250Z,3428.00
2018-08-31T08:45:05.265Z,3416.00
2018-08-31T08:46:05.281Z,3400.00
2018-08-31T08:47:05.296Z,3396.00
2018-08-31T08:48:05.324Z,3400.00
2018-08-31T08:49:05.331Z,3396.00
2018-08-31T08:50:05.343Z,3376.00
2018-08-31T08:51:06.307Z,3348.00
2018-08-31T08:52:05.376Z,3312.00
2018-08-31T08:53:05.395Z,3300.00
2018-08-31T08:54:05.434Z,3292.00
2018-08-31T08:55:05.434Z,3308.00
2018-08-31T08:56:05.448Z,3304.00
2018-08-31T08:57:05.463Z,3308.00
2018-08-31T08:58:05.497Z,3296.00
2018-08-31T08:59:05.552Z,3280.00
2018-08-31T09:00:05.503Z,3264.00
2018-08-31T09:01:05.522Z,3232.00
2018-08-31T09:02:05.534Z,3212.00
2018-08-31T09:03:05.570Z,3196.00
2018-08-31T09:04:05.569Z,3192.00
2018-08-31T09:05:05.583Z,3184.00
2018-08-31T09:06:05.597Z,3184.00
2018-08-31T09:07:05.612Z,3204.00
2018-08-31T09:08:05.632Z,3180.00
2018-08-31T09:09:05.673Z,3260.00
2018-08-31T09:10:05.668Z,3296.00
2018-08-31T09:11:06.011Z,3320.00
2018-08-31T09:12:06.423Z,3356.00
2018-08-31T09:13:05.707Z,3356.00
2018-08-31T09:14:06.012Z,3348.00
2018-08-31T09:15:05.741Z,3340.00
2018-08-31T09:16:05.782Z,3332.00
2018-08-31T09:17:05.773Z,3328.00
2018-08-31T09:18:05.792Z,3324.00
2018-08-31T09:19:05.809Z,3328.00
2018-08-31T09:20:05.828Z,3336.00
2018-08-31T09:21:05.982Z,3340.00
2018-08-31T09:22:05.856Z,3340.00
2018-08-31T09:23:05.864Z,3352.00
2018-08-31T09:24:05.879Z,3396.00
2018-08-31T09:25:05.896Z,3460.00
2018-08-31T09:26:05.914Z,3500.00
2018-08-31T09:27:05.925Z,3568.00
2018-08-31T09:28:05.943Z,3616.00
2018-08-31T09:29:05.961Z,3644.00
2018-08-31T09:30:05.982Z,3660.00
2018-08-31T09:31:06.020Z,3672.00
2018-08-31T09:32:06.549Z,3696.00
2018-08-31T09:33:06.023Z,3724.00
2018-08-31T09:34:06.038Z,3768.00
2018-08-31T09:35:06.052Z,3784.00
2018-08-31T09:36:06.072Z,3776.00
2018-08-31T09:37:06.089Z,3784.00
2018-08-31T09:38:06.108Z,3784.00
2018-08-31T09:39:06.122Z,3812.00
2018-08-31T09:40:06.136Z,3844.00
2018-08-31T09:41:06.150Z,3892.00
2018-08-31T09:42:06.166Z,3948.00
2018-08-31T09:43:06.180Z,4020.00
2018-08-31T09:44:06.208Z,4088.00
2018-08-31T09:45:06.214Z,4112.00
2018-08-31T09:46:06.230Z,4132.00
2018-08-31T09:47:06.245Z,4168.00
2018-08-31T09:48:06.265Z,4200.00
2018-08-31T09:49:06.286Z,4152.00
2018-08-31T09:50:06.304Z,4204.00
2018-08-31T09:51:06.308Z,4128.00
2018-08-31T09:52:06.326Z,4056.00
2018-08-31T09:53:06.350Z,3972.00
2018-08-31T09:54:06.361Z,4076.00
2018-08-31T09:55:06.389Z,4028.00
2018-08-31T09:56:06.392Z,3976.00
2018-08-31T09:57:06.409Z,3868.00
2018-08-31T09:58:06.426Z,3724.00
2018-08-31T09:59:06.438Z,3704.00
2018-08-31T10:00:06.464Z,3712.00
2018-08-31T10:01:06.471Z,3740.00
2018-08-31T10:02:06.614Z,3760.00
2018-08-31T10:03:06.573Z,3812.00
2018-08-31T10:04:06.786Z,3896.00
2018-08-31T10:05:06.541Z,4012.00
2018-08-31T10:06:06.552Z,4116.00
2018-08-31T10:07:06.570Z,4116.00
2018-08-31T10:08:06.585Z,4164.00
2018-08-31T10:09:06.599Z,4192.00
2018-08-31T10:10:06.712Z,4268.00
2018-08-31T10:11:06.644Z,4272.00
2018-08-31T10:12:06.653Z,4296.00
2018-08-31T10:13:06.694Z,4368.00
2018-08-31T10:14:06.761Z,4404.00
2018-08-31T10:15:06.705Z,4292.00
2018-08-31T10:16:06.711Z,4512.00
2018-08-31T10:17:06.730Z,4532.00
2018-08-31T10:18:06.748Z,4548.00
2018-08-31T10:19:06.760Z,4580.00
2018-08-31T10:20:06.776Z,4548.00
2018-08-31T10:21:06.796Z,4560.00
2018-08-31T10:22:06.809Z,4620.00
2018-08-31T10:23:06.824Z,4616.00
2018-08-31T10:24:06.842Z,4604.00
2018-08-31T10:25:06.884Z,4608.00
2018-08-31T10:26:06.879Z,4612.00
2018-08-31T10:27:06.891Z,4624.00
2018-08-31T10:28:06.905Z,4624.00
2018-08-31T10:29:06.922Z,4628.00
2018-08-31T10:30:06.991Z,4620.00
2018-08-31T10:31:06.961Z,4616.00
2018-08-31T10:32:06.971Z,4612.00
2018-08-31T10:33:07.040Z,4600.00
2018-08-31T10:34:07.023Z,4576.00
2018-08-31T10:35:07.023Z,4568.00
2018-08-31T10:36:07.044Z,4576.00
2018-08-31T10:37:07.065Z,4572.00
2018-08-31T10:38:07.069Z,4584.00
2018-08-31T10:39:07.085Z,4540.00
2018-08-31T10:40:07.104Z,4612.00
2018-08-31T10:41:07.118Z,4664.00
2018-08-31T10:42:07.149Z,4680.00
2018-08-31T10:43:07.488Z,4668.00
2018-08-31T10:44:07.650Z,4608.00
2018-08-31T10:45:07.179Z,4540.00
2018-08-31T10:46:07.199Z,4448.00
2018-08-31T10:47:07.220Z,4448.00
2018-08-31T10:48:07.232Z,4272.00
2018-08-31T10:49:07.246Z,4292.00
2018-08-31T10:50:07.282Z,4364.00
2018-08-31T10:51:07.330Z,4300.00
2018-08-31T10:52:07.299Z,4172.00
2018-08-31T10:53:07.311Z,4020.00
2018-08-31T10:54:07.326Z,3980.00
2018-08-31T10:55:07.343Z,4008.00
2018-08-31T10:56:07.358Z,3956.00
2018-08-31T10:57:07.444Z,3972.00
2018-08-31T10:58:07.457Z,3972.00
2018-08-31T10:59:07.408Z,3960.00
2018-08-31T11:00:07.466Z,3968.00
2018-08-31T11:01:07.440Z,4124.00
2018-08-31T11:02:07.457Z,4100.00
2018-08-31T11:03:07.525Z,4036.00
2018-08-31T11:04:07.491Z,4144.00
2018-08-31T11:05:07.511Z,4068.00
2018-08-31T11:06:07.542Z,4324.00
2018-08-31T11:07:07.532Z,4412.00
2018-08-31T11:08:07.547Z,4520.00
2018-08-31T11:09:07.563Z,4588.00
2018-08-31T11:10:07.578Z,4568.00
2018-08-31T11:11:07.606Z,4508.00
2018-08-31T11:12:07.653Z,4444.00
2018-08-31T11:13:07.698Z,4468.00
2018-08-31T11:14:07.641Z,4592.00
2018-08-31T11:15:07.705Z,4572.00
2018-08-31T11:16:07.675Z,4560.00
2018-08-31T11:17:07.692Z,4428.00
2018-08-31T11:18:07.708Z,4360.00
2018-08-31T11:19:07.727Z,3996.00
2018-08-31T11:20:07.809Z,3528.00
2018-08-31T11:21:07.762Z,3584.00
2018-08-31T11:22:07.772Z,3188.00
2018-08-31T11:23:07.793Z,3136.00
2018-08-31T11:24:07.807Z,3172.00
2018-08-31T11:25:07.827Z,3244.00
2018-08-31T11:26:07.887Z,3352.00
2018-08-31T11:27:07.877Z,3460.00
2018-08-31T11:28:07.871Z,3652.00
2018-08-31T11:30:07.905Z,3960.00
2018-08-31T11:31:07.925Z,4112.00
2018-08-31T11:32:07.953Z,4100.00
2018-08-31T11:33:07.954Z,4160.00
2018-08-31T11:34:07.970Z,4280.00
2018-08-31T11:35:07.988Z,4852.00
2018-08-31T11:36:08.005Z,4928.00
2018-08-31T11:37:08.020Z,4840.00
2018-08-31T11:38:08.042Z,5000.00
2018-08-31T11:39:08.059Z,4888.00
2018-08-31T11:40:08.069Z,4712.00
2018-08-31T11:41:08.129Z,4600.00
2018-08-31T11:42:08.818Z,4532.00
2018-08-31T11:43:08.119Z,3948.00
2018-08-31T11:44:08.174Z,3884.00
2018-08-31T11:45:08.157Z,3936.00
2018-08-31T11:46:08.172Z,3896.00
2018-08-31T11:47:08.286Z,4496.00
2018-08-31T11:48:08.217Z,3972.00
2018-08-31T11:49:08.220Z,3748.00
2018-08-31T11:50:11.444Z,3768.00
2018-08-31T11:51:08.431Z,4392.00
2018-08-31T11:52:08.427Z,4424.00
2018-08-31T11:53:08.285Z,4232.00
2018-08-31T11:54:08.304Z,4092.00
2018-08-31T11:55:08.442Z,4128.00
2018-08-31T11:56:08.346Z,4164.00
2018-08-31T11:57:08.352Z,4200.00
2018-08-31T11:58:08.368Z,4176.00
2018-08-31T11:59:08.383Z,4156.00
2018-08-31T12:00:08.402Z,4212.00
2018-08-31T12:01:08.742Z,4360.00
2018-08-31T12:02:08.458Z,4384.00
2018-08-31T12:03:08.457Z,4512.00
2018-08-31T12:04:08.474Z,4696.00
2018-08-31T12:05:08.485Z,4924.00
2018-08-31T12:06:08.503Z,5184.00
2018-08-31T12:07:08.517Z,5388.00
2018-08-31T12:08:08.541Z,5472.00
2018-08-31T12:09:08.553Z,5456.00
2018-08-31T12:10:08.699Z,5436.00
2018-08-31T12:11:08.585Z,5476.00
2018-08-31T12:12:08.603Z,5572.00
2018-08-31T12:13:08.621Z,5500.00
2018-08-31T12:14:08.635Z,5520.00
2018-08-31T12:15:08.651Z,6136.00
2018-08-31T12:16:08.670Z,5460.00
2018-08-31T12:17:08.703Z,5556.00
2018-08-31T12:18:08.710Z,5692.00
2018-08-31T12:19:08.734Z,5608.00
2018-08-31T12:20:08.741Z,5368.00
2018-08-31T12:21:08.765Z,5368.00
2018-08-31T12:22:08.774Z,5304.00
2018-08-31T12:23:08.813Z,5616.00
2018-08-31T12:24:08.808Z,5684.00
2018-08-31T12:25:08.823Z,5704.00
2018-08-31T12:26:08.840Z,5564.00
2018-08-31T12:27:08.859Z,5540.00
2018-08-31T12:28:09.062Z,5772.00
2018-08-31T12:29:08.901Z,5668.00
2018-08-31T12:30:08.908Z,6096.00
2018-08-31T12:31:08.931Z,5836.00
2018-08-31T12:32:08.943Z,5900.00
2018-08-31T12:33:09.039Z,6196.00
2018-08-31T12:34:09.034Z,6440.00
2018-08-31T12:36:09.601Z,6116.00
2018-08-31T12:37:09.031Z,5968.00
2018-08-31T12:38:09.084Z,5844.00
2018-08-31T12:39:09.065Z,6168.00
2018-08-31T12:40:09.094Z,5504.00